createdAt,value
2018-04-12T00:02:23.955Z,59.10
2018-04-12T00:04:50.165Z,59.00
2018-04-12T00:07:16.396Z,59.10
2018-04-12T00:09:43.359Z,59.10
2018-04-12T00:12:09.589Z,59.10
2018-04-12T00:14:36.560Z,59.20
2018-04-12T00:17:02.823Z,59.10
2018-04-12T00:19:29.043Z,59.20
2018-04-12T00:21:55.295Z,59.20
2018-04-12T00:24:21.522Z,59.40
2018-04-12T00:26:47.748Z,59.40
2018-04-12T00:29:14.731Z,59.80
2018-04-12T00:31:40.948Z,59.80
2018-04-12T00:34:07.908Z,60.10
2018-04-12T00:36:34.884Z,60.10
2018-04-12T00:39:01.110Z,60.10
2018-04-12T00:41:28.077Z,60.20
2018-04-12T00:43:54.296Z,60.00
2018-04-12T00:46:21.249Z,60.10
2018-04-12T00:48:47.491Z,60.10
2018-04-12T00:51:14.450Z,60.10
2018-04-12T00:53:53.869Z,60.20
2018-04-12T00:56:20.121Z,60.20
2018-04-12T00:58:46.365Z,60.40
2018-04-12T01:01:12.637Z,60.50
2018-04-12T01:03:39.624Z,61.00
2018-04-12T01:06:05.851Z,61.00
2018-04-12T01:08:32.058Z,61.10
2018-04-12T01:10:58.275Z,61.40
2018-04-12T01:13:24.488Z,61.50
2018-04-12T01:15:50.693Z,61.70
2018-04-12T01:18:17.732Z,62.30
2018-04-12T01:20:43.970Z,62.30
2018-04-12T01:23:10.693Z,62.40
2018-04-12T01:25:37.291Z,62.60
2018-04-12T01:28:04.287Z,62.80
2018-04-12T01:30:30.497Z,62.80
2018-04-12T01:33:09.765Z,63.20
2018-04-12T01:35:36.032Z,63.20
2018-04-12T01:38:02.276Z,63.40
2018-04-12T01:40:28.499Z,63.50
2018-04-12T01:42:54.746Z,63.80
2018-04-12T01:45:20.982Z,63.90
2018-04-12T01:47:47.218Z,64.00
2018-04-12T01:50:13.451Z,64.00
2018-04-12T01:52:39.729Z,64.20
2018-04-12T01:55:05.978Z,64.40
2018-04-12T01:57:32.228Z,64.40
2018-04-12T01:59:58.450Z,64.70
2018-04-12T02:02:24.924Z,64.90
2018-04-12T02:04:51.905Z,65.10
2018-04-12T02:07:18.097Z,65.00
2018-04-12T02:09:44.329Z,65.70
2018-04-12T02:12:10.546Z,64.90
2018-04-12T02:14:36.850Z,65.00
2018-04-12T02:17:03.817Z,65.00
2018-04-12T02:19:30.063Z,65.00
2018-04-12T02:21:56.286Z,64.90
2018-04-12T02:24:23.258Z,64.80
2018-04-12T02:26:50.224Z,64.80
2018-04-12T02:29:16.461Z,64.80
2018-04-12T02:31:42.684Z,65.00
2018-04-12T02:34:09.630Z,64.80
2018-04-12T02:36:35.845Z,64.80
2018-04-12T02:39:02.108Z,64.40
2018-04-12T02:41:28.335Z,64.10
2018-04-12T02:43:54.573Z,63.90
2018-04-12T02:46:20.779Z,63.70
2018-04-12T02:48:47.028Z,63.40
2018-04-12T02:51:13.241Z,63.20
2018-04-12T02:53:39.480Z,62.80
2018-04-12T02:56:05.682Z,62.20
2018-04-12T02:58:31.902Z,61.70
2018-04-12T03:00:58.890Z,61.10
2018-04-12T03:03:25.166Z,61.00
2018-04-12T03:05:51.388Z,61.40
2018-04-12T03:08:18.362Z,60.70
2018-04-12T03:10:44.581Z,60.70
2018-04-12T03:13:11.547Z,61.10
2018-04-12T03:15:38.532Z,61.00
2018-04-12T03:18:04.755Z,61.00
2018-04-12T03:20:31.004Z,61.20
2018-04-12T03:22:57.220Z,61.10
2018-04-12T03:25:24.190Z,61.70
2018-04-12T03:27:51.149Z,61.00
2018-04-12T03:30:17.377Z,61.00
2018-04-12T03:32:44.317Z,60.90
2018-04-12T03:35:10.549Z,60.80
2018-04-12T03:37:36.761Z,60.80
2018-04-12T03:40:03.026Z,61.00
2018-04-12T03:42:29.250Z,61.10
2018-04-12T03:44:55.486Z,61.80
2018-04-12T03:47:21.697Z,61.20
2018-04-12T03:49:47.956Z,61.10
2018-04-12T03:52:14.170Z,61.30
2018-04-12T03:54:40.404Z,61.20
2018-04-12T03:57:07.362Z,61.60
2018-04-12T03:59:33.591Z,61.60
2018-04-12T04:02:00.563Z,61.90
2018-04-12T04:04:27.546Z,62.00
2018-04-12T04:06:53.768Z,61.90
2018-04-12T04:09:20.008Z,61.80
2018-04-12T04:11:46.222Z,62.00
2018-04-12T04:14:25.617Z,62.20
2018-04-12T04:17:04.086Z,62.20
2018-04-12T04:19:54.365Z,62.50
2018-04-12T04:22:20.573Z,62.40
2018-04-12T04:24:46.807Z,62.60
2018-04-12T04:27:13.912Z,62.50
2018-04-12T04:29:40.140Z,62.60
2018-04-12T04:32:06.373Z,62.70
2018-04-12T04:34:32.609Z,62.80
2018-04-12T04:36:58.819Z,62.70
2018-04-12T04:39:25.821Z,62.40
2018-04-12T04:41:52.035Z,62.40
2018-04-12T04:44:18.255Z,62.30
2018-04-12T04:46:45.224Z,62.40
2018-04-12T04:49:12.176Z,62.30
2018-04-12T04:51:39.178Z,62.40
2018-04-12T04:54:05.388Z,62.40
2018-04-12T04:56:31.618Z,62.20
2018-04-12T04:58:58.562Z,62.30
2018-04-12T05:01:25.624Z,62.60
2018-04-12T05:03:52.102Z,62.50
2018-04-12T05:06:18.360Z,62.70
2018-04-12T05:08:44.611Z,62.50
2018-04-12T05:11:10.852Z,62.30
2018-04-12T05:13:37.081Z,62.30
2018-04-12T05:16:03.337Z,62.30
2018-04-12T05:18:29.583Z,62.70
2018-04-12T05:20:55.835Z,62.80
2018-04-12T05:23:22.087Z,62.60
2018-04-12T05:25:48.353Z,63.10
2018-04-12T05:28:14.614Z,62.00
2018-04-12T05:30:40.839Z,61.80
2018-04-12T05:33:07.065Z,62.00
2018-04-12T05:35:34.093Z,61.60
2018-04-12T05:38:00.329Z,61.60
2018-04-12T05:40:26.571Z,61.50
2018-04-12T05:42:52.775Z,61.60
2018-04-12T05:45:19.005Z,62.40
2018-04-12T05:47:45.221Z,62.60
2018-04-12T05:50:12.193Z,62.10
2018-04-12T05:52:38.425Z,62.10
2018-04-12T05:55:05.375Z,62.70
2018-04-12T05:57:32.342Z,62.80
2018-04-12T05:59:58.573Z,63.40
2018-04-12T06:02:25.561Z,64.10
2018-04-12T06:04:51.936Z,64.00
2018-04-12T06:07:18.172Z,63.30
2018-04-12T06:09:44.388Z,62.90
2018-04-12T06:12:10.623Z,62.80
2018-04-12T06:14:36.863Z,62.40
2018-04-12T06:17:03.137Z,62.40
2018-04-12T06:19:29.367Z,62.80
2018-04-12T06:21:55.593Z,62.80
2018-04-12T06:24:21.819Z,63.30
2018-04-12T06:26:48.043Z,63.00
2018-04-12T06:29:14.289Z,62.80
2018-04-12T06:31:40.533Z,62.80
2018-04-12T06:34:06.748Z,61.70
2018-04-12T06:36:33.745Z,62.20
2018-04-12T06:39:00.194Z,62.10
2018-04-12T06:41:26.466Z,62.40
2018-04-12T06:43:52.704Z,62.70
2018-04-12T06:46:18.962Z,62.60
2018-04-12T06:48:45.162Z,61.70
2018-04-12T06:51:12.277Z,61.70
2018-04-12T06:53:39.233Z,61.40
2018-04-12T06:56:06.220Z,61.70
2018-04-12T06:58:32.452Z,61.60
2018-04-12T07:00:58.702Z,61.70
2018-04-12T07:03:24.922Z,61.40
2018-04-12T07:05:52.578Z,62.70
2018-04-12T07:08:19.600Z,61.60
2018-04-12T07:10:45.817Z,61.60
2018-04-12T07:13:12.048Z,61.40
2018-04-12T07:15:38.278Z,61.10
2018-04-12T07:18:05.316Z,60.40
2018-04-12T07:20:31.543Z,60.40
2018-04-12T07:22:57.779Z,60.30
2018-04-12T07:25:23.997Z,59.80
2018-04-12T07:27:50.236Z,59.40
2018-04-12T07:30:16.486Z,59.20
2018-04-12T07:32:42.727Z,58.20
2018-04-12T07:35:08.957Z,58.00
2018-04-12T07:37:35.217Z,57.70
2018-04-12T07:40:01.466Z,57.10
2018-04-12T07:42:27.691Z,56.90
2018-04-12T07:44:53.911Z,56.70
2018-04-12T07:47:20.157Z,56.10
2018-04-12T07:49:46.365Z,55.60
2018-04-12T07:52:13.335Z,55.60
2018-04-12T07:54:39.537Z,55.60
2018-04-12T07:57:05.755Z,55.20
2018-04-12T07:59:31.983Z,54.80
2018-04-12T08:01:58.245Z,54.80
2018-04-12T08:04:24.495Z,54.30
2018-04-12T08:06:50.802Z,54.10
2018-04-12T08:09:17.005Z,54.40
2018-04-12T08:11:43.977Z,53.70
2018-04-12T08:14:10.204Z,53.70
2018-04-12T08:16:37.248Z,53.40
2018-04-12T08:19:04.259Z,53.50
2018-04-12T08:21:30.500Z,53.10
2018-04-12T08:23:56.740Z,53.50
2018-04-12T08:26:23.013Z,55.50
2018-04-12T08:28:49.313Z,56.00
2018-04-12T08:31:16.259Z,56.20
2018-04-12T08:33:42.491Z,56.20
2018-04-12T08:36:09.431Z,54.20
2018-04-12T08:38:36.416Z,53.60
2018-04-12T08:41:02.651Z,53.50
2018-04-12T08:43:28.877Z,53.50
2018-04-12T08:45:55.862Z,53.50
2018-04-12T08:48:22.083Z,53.50
2018-04-12T08:50:48.309Z,52.40
2018-04-12T08:53:15.320Z,53.00
2018-04-12T08:55:41.522Z,53.00
2018-04-12T08:58:08.530Z,52.40
2018-04-12T09:00:34.764Z,52.40
2018-04-12T09:03:01.020Z,52.80
2018-04-12T09:05:27.241Z,52.90
2018-04-12T09:07:53.493Z,53.00
2018-04-12T09:10:19.725Z,52.80
2018-04-12T09:12:45.973Z,53.00
2018-04-12T09:15:12.168Z,52.40
2018-04-12T09:17:38.439Z,51.90
2018-04-12T09:20:04.662Z,51.10
2018-04-12T09:22:30.902Z,51.30
2018-04-12T09:24:57.118Z,51.90
2018-04-12T09:27:24.089Z,51.10
2018-04-12T09:29:50.331Z,51.00
2018-04-12T09:32:16.571Z,51.20
2018-04-12T09:34:43.530Z,51.00
2018-04-12T09:37:09.754Z,50.90
2018-04-12T09:39:36.730Z,48.00
2018-04-12T09:42:02.978Z,48.00
2018-04-12T09:44:29.210Z,48.20
2018-04-12T09:46:55.410Z,48.90
2018-04-12T09:49:21.709Z,47.90
2018-04-12T09:51:48.609Z,45.00
2018-04-12T09:54:14.853Z,45.00
2018-04-12T09:56:41.853Z,45.10
2018-04-12T09:59:08.106Z,44.90
2018-04-12T10:01:40.337Z,43.60
2018-04-12T10:04:13.336Z,43.00
2018-04-12T10:06:40.302Z,43.20
2018-04-12T10:09:13.469Z,43.30
2018-04-12T10:11:39.717Z,43.30
2018-04-12T10:14:05.953Z,42.60
2018-04-12T10:16:32.198Z,42.60
2018-04-12T10:18:58.425Z,42.70
2018-04-12T10:21:24.639Z,41.90
2018-04-12T10:23:50.865Z,42.70
2018-04-12T10:26:17.109Z,41.60
2018-04-12T10:28:43.384Z,40.60
2018-04-12T10:31:09.615Z,39.70
2018-04-12T10:33:35.869Z,39.20
2018-04-12T10:36:02.079Z,38.20
2018-04-12T10:38:28.312Z,38.60
2018-04-12T10:40:54.535Z,38.70
2018-04-12T10:43:21.501Z,38.50
2018-04-12T10:45:47.745Z,38.40
2018-04-12T10:48:21.029Z,37.20
2018-04-12T10:50:48.009Z,36.70
2018-04-12T10:53:14.263Z,36.70
2018-04-12T10:55:40.507Z,36.40
2018-04-12T10:58:06.721Z,36.20
2018-04-12T11:00:32.965Z,36.50
2018-04-12T11:02:59.934Z,36.80
2018-04-12T11:05:26.184Z,36.70
2018-04-12T11:07:52.397Z,38.50
2018-04-12T11:10:19.416Z,38.70
2018-04-12T11:12:45.639Z,38.70
2018-04-12T11:15:11.880Z,38.70
2018-04-12T11:17:53.027Z,39.00
2018-04-12T11:20:19.983Z,38.60
2018-04-12T11:22:46.951Z,38.80
2018-04-12T11:25:13.163Z,38.70
2018-04-12T11:27:39.397Z,39.40
2018-04-12T11:30:05.678Z,39.40
2018-04-12T11:32:31.892Z,40.00
2018-04-12T11:34:58.869Z,41.20
2018-04-12T11:37:25.119Z,41.10
2018-04-12T11:39:51.340Z,41.10
2018-04-12T11:42:18.303Z,41.70
2018-04-12T11:44:45.298Z,42.00
2018-04-12T11:47:11.556Z,42.00
2018-04-12T11:49:37.795Z,41.30
2018-04-12T11:52:04.018Z,41.40
2018-04-12T11:54:30.288Z,39.80
2018-04-12T11:56:56.501Z,39.60
2018-04-12T11:59:22.742Z,39.50
2018-04-12T12:01:48.992Z,39.40
2018-04-12T12:04:15.960Z,39.90
2018-04-12T12:06:42.258Z,40.00
2018-04-12T12:09:09.342Z,40.10
2018-04-12T12:11:35.569Z,39.70
2018-04-12T12:14:01.780Z,39.70
2018-04-12T12:16:28.730Z,39.50
2018-04-12T12:18:55.713Z,40.00
2018-04-12T12:21:21.946Z,40.00
2018-04-12T12:23:48.935Z,41.30
2018-04-12T12:26:15.211Z,41.30
2018-04-12T12:28:41.431Z,40.90
2018-04-12T12:31:07.665Z,40.70
2018-04-12T12:33:33.950Z,39.70
2018-04-12T12:36:00.943Z,38.40
2018-04-12T12:38:27.150Z,38.30
2018-04-12T12:40:54.165Z,37.50
2018-04-12T12:43:32.561Z,37.50
2018-04-12T12:46:04.897Z,37.00
2018-04-12T12:48:37.305Z,36.80
2018-04-12T12:51:03.552Z,36.80
2018-04-12T12:53:36.507Z,37.40
2018-04-12T12:56:14.907Z,37.30
2018-04-12T12:58:47.218Z,37.40
2018-04-12T13:01:19.593Z,37.10
2018-04-12T13:03:51.916Z,37.30
2018-04-12T13:06:18.177Z,37.90
2018-04-12T13:08:51.367Z,38.00
2018-04-12T13:11:18.375Z,38.10
2018-04-12T13:13:50.713Z,38.00
2018-04-12T13:16:17.723Z,39.10
2018-04-12T13:18:50.077Z,39.10
2018-04-12T13:21:22.430Z,39.50
2018-04-12T13:23:54.845Z,39.60
2018-04-12T13:26:21.098Z,39.60
2018-04-12T13:28:53.357Z,39.20
2018-04-12T13:31:32.442Z,38.80
2018-04-12T13:33:58.652Z,38.70
2018-04-12T13:36:24.893Z,38.30
2018-04-12T13:39:03.400Z,38.60
2018-04-12T13:41:36.412Z,39.10
2018-04-12T13:44:02.635Z,39.70
2018-04-12T13:46:29.632Z,39.80
2018-04-12T13:49:02.113Z,39.80
2018-04-12T13:51:28.390Z,39.80
2018-04-12T13:54:00.753Z,39.90
2018-04-12T13:56:33.242Z,40.50
2018-04-12T13:59:05.661Z,39.60
2018-04-12T14:01:38.036Z,39.70
2018-04-12T14:04:10.272Z,39.60
2018-04-12T14:06:48.552Z,39.70
2018-04-12T14:09:26.955Z,39.90
2018-04-12T14:12:05.435Z,40.10
2018-04-12T14:14:44.711Z,41.30
2018-04-12T14:17:10.960Z,41.20
2018-04-12T14:19:37.194Z,41.50
2018-04-12T14:22:03.463Z,42.10
2018-04-12T14:24:42.587Z,41.60
2018-04-12T14:27:08.815Z,41.60
2018-04-12T14:29:35.033Z,41.50
2018-04-12T14:32:07.998Z,40.70
2018-04-12T14:34:52.651Z,40.60
2018-04-12T14:37:37.454Z,41.00
2018-04-12T14:40:09.899Z,41.10
2018-04-12T14:42:36.157Z,41.40
2018-04-12T14:45:02.397Z,41.40
2018-04-12T14:47:28.659Z,41.60
2018-04-12T14:49:54.885Z,41.80
2018-04-12T14:52:33.474Z,42.40
2018-04-12T14:55:05.802Z,42.80
2018-04-12T14:57:32.042Z,43.00
2018-04-12T14:59:58.266Z,43.20
2018-04-12T15:02:30.549Z,43.20
2018-04-12T15:05:02.954Z,43.20
2018-04-12T15:07:35.361Z,43.80
2018-04-12T15:10:02.432Z,44.40
2018-04-12T15:12:35.549Z,44.60
2018-04-12T15:15:07.904Z,44.60
2018-04-12T15:17:34.161Z,44.90
2018-04-12T15:20:01.130Z,44.80
2018-04-12T15:22:33.406Z,44.80
2018-04-12T15:25:00.351Z,44.50
2018-04-12T15:27:27.344Z,44.80
2018-04-12T15:29:53.611Z,44.80
2018-04-12T15:32:26.081Z,45.20
2018-04-12T15:34:58.499Z,45.40
2018-04-12T15:37:36.977Z,45.60
2018-04-12T15:40:15.371Z,45.50
2018-04-12T15:42:47.666Z,45.70
2018-04-12T15:45:27.070Z,45.60
2018-04-12T15:47:59.521Z,45.50
2018-04-12T15:50:25.827Z,45.40
2018-04-12T15:52:58.233Z,45.90
2018-04-12T15:55:25.206Z,45.80
2018-04-12T15:57:57.551Z,45.70
2018-04-12T16:00:24.517Z,45.60
2018-04-12T16:03:03.017Z,45.60
2018-04-12T16:05:41.473Z,45.60
2018-04-12T16:08:20.052Z,45.80
2018-04-12T16:10:46.267Z,46.20
2018-04-12T16:13:19.348Z,46.00
2018-04-12T16:15:51.592Z,46.00
2018-04-12T16:18:17.864Z,45.80
2018-04-12T16:20:56.133Z,46.30
2018-04-12T16:23:28.387Z,46.30
2018-04-12T16:26:01.577Z,46.70
2018-04-12T16:28:27.839Z,46.70
2018-04-12T16:31:00.148Z,46.80
2018-04-12T16:33:32.366Z,46.90
2018-04-12T16:35:58.600Z,47.00
2018-04-12T16:38:24.881Z,46.90
2018-04-12T16:40:57.825Z,46.20
2018-04-12T16:43:30.183Z,46.30
2018-04-12T16:45:56.827Z,46.30
2018-04-12T16:48:30.673Z,45.90
2018-04-12T16:51:03.009Z,45.60
2018-04-12T16:53:29.215Z,45.30
2018-04-12T16:56:01.535Z,45.10
2018-04-12T16:58:34.596Z,45.60
2018-04-12T17:01:06.972Z,45.30
2018-04-12T17:03:33.204Z,45.70
2018-04-12T17:06:05.460Z,45.80
2018-04-12T17:08:31.697Z,46.10
2018-04-12T17:10:58.673Z,46.70
2018-04-12T17:13:37.671Z,46.70
2018-04-12T17:16:10.197Z,46.10
2018-04-12T17:18:42.661Z,43.20
2018-04-12T17:21:21.868Z,43.60
2018-04-12T17:23:54.365Z,43.70
2018-04-12T17:26:33.481Z,43.80
2018-04-12T17:29:00.187Z,44.00
2018-04-12T17:31:32.632Z,44.00
2018-04-12T17:34:04.921Z,44.40
2018-04-12T17:36:37.819Z,44.50
2018-04-12T17:39:04.919Z,45.00
2018-04-12T17:41:31.909Z,45.00
2018-04-12T17:43:58.183Z,44.80
2018-04-12T17:46:24.408Z,45.20
2018-04-12T17:48:51.141Z,45.20
2018-04-12T17:51:23.661Z,45.70
2018-04-12T17:53:55.895Z,46.30
2018-04-12T17:56:22.960Z,47.10
2018-04-12T17:58:55.614Z,47.10
2018-04-12T18:01:27.877Z,47.30
2018-04-12T18:03:54.144Z,47.40
2018-04-12T18:06:26.932Z,47.50
2018-04-12T18:08:59.342Z,48.20
2018-04-12T18:11:44.807Z,48.20
2018-04-12T18:14:11.117Z,48.20
2018-04-12T18:16:43.577Z,48.30
2018-04-12T18:19:15.967Z,48.60
2018-04-12T18:21:48.189Z,48.70
2018-04-12T18:24:20.660Z,48.80
2018-04-12T18:26:46.899Z,48.80
2018-04-12T18:29:19.169Z,48.70
2018-04-12T18:31:57.726Z,48.50
2018-04-12T18:34:30.149Z,49.10
2018-04-12T18:37:03.362Z,50.70
2018-04-12T18:39:42.791Z,50.80
2018-04-12T18:42:21.336Z,50.80
2018-04-12T18:44:54.390Z,51.20
2018-04-12T18:47:20.699Z,51.20
2018-04-12T18:49:46.990Z,51.50
2018-04-12T18:52:13.287Z,52.70
2018-04-12T18:54:45.626Z,53.00
2018-04-12T18:57:11.930Z,53.00
2018-04-12T18:59:38.232Z,53.60
2018-04-12T19:02:12.115Z,52.50
2018-04-12T19:04:38.595Z,52.50
2018-04-12T19:07:17.034Z,52.50
2018-04-12T19:09:43.345Z,52.70
2018-04-12T19:12:09.656Z,52.80
2018-04-12T19:14:37.186Z,53.10
2018-04-12T19:17:04.739Z,53.50
2018-04-12T19:19:31.774Z,54.40
2018-04-12T19:21:58.044Z,54.10
2018-04-12T19:24:31.221Z,55.60
2018-04-12T19:26:57.687Z,55.40
2018-04-12T19:29:30.048Z,56.20
2018-04-12T19:31:56.386Z,56.80
2018-04-12T19:34:28.714Z,57.40
2018-04-12T19:37:02.893Z,58.30
2018-04-12T19:39:35.138Z,58.30
2018-04-12T19:42:01.427Z,58.10
2018-04-12T19:44:27.857Z,58.10
2018-04-12T19:47:00.262Z,58.40
2018-04-12T19:49:32.750Z,59.00
2018-04-12T19:51:59.073Z,59.30
2018-04-12T19:54:26.477Z,60.20
2018-04-12T19:56:53.593Z,60.20
2018-04-12T19:59:31.954Z,59.60
2018-04-12T20:02:00.249Z,60.60
2018-04-12T20:04:32.856Z,60.60
2018-04-12T20:07:05.937Z,60.90
2018-04-12T20:09:38.299Z,60.70
2018-04-12T20:12:22.972Z,61.40
2018-04-12T20:15:01.743Z,61.40
2018-04-12T20:17:28.800Z,61.90
2018-04-12T20:20:02.548Z,62.40
2018-04-12T20:22:41.901Z,62.90
2018-04-12T20:25:08.494Z,62.80
2018-04-12T20:27:47.110Z,63.20
2018-04-12T20:30:19.484Z,63.60
2018-04-12T20:32:45.736Z,63.90
2018-04-12T20:35:11.984Z,64.20
2018-04-12T20:37:38.230Z,64.60
2018-04-12T20:40:05.612Z,65.00
2018-04-12T20:42:38.089Z,65.40
2018-04-12T20:45:04.409Z,65.40
2018-04-12T20:47:36.697Z,65.70
2018-04-12T20:50:09.452Z,65.60
2018-04-12T20:52:48.197Z,65.70
2018-04-12T20:55:20.647Z,66.20
2018-04-12T20:57:53.006Z,65.60
2018-04-12T21:00:25.341Z,66.10
2018-04-12T21:02:57.587Z,66.10
2018-04-12T21:05:29.832Z,66.10
2018-04-12T21:08:02.086Z,66.50
2018-04-12T21:10:28.292Z,66.70
2018-04-12T21:13:00.515Z,66.80
2018-04-12T21:15:26.879Z,67.10
2018-04-12T21:17:59.321Z,67.10
2018-04-12T21:20:32.343Z,67.20
2018-04-12T21:23:04.537Z,67.00
2018-04-12T21:25:36.774Z,67.00
2018-04-12T21:28:09.174Z,67.30
2018-04-12T21:30:42.397Z,67.80
2018-04-12T21:33:08.627Z,67.60
2018-04-12T21:35:41.016Z,67.90
2018-04-12T21:38:19.674Z,68.30
2018-04-12T21:40:45.909Z,68.60
2018-04-12T21:43:12.194Z,69.10
2018-04-12T21:45:44.558Z,69.40
2018-04-12T21:48:16.872Z,69.60
2018-04-12T21:50:50.005Z,69.30
2018-04-12T21:53:22.255Z,69.30
2018-04-12T21:55:49.241Z,69.70
2018-04-12T21:58:21.471Z,69.70
2018-04-12T22:00:53.776Z,70.10
2018-04-12T22:03:20.044Z,70.10
2018-04-12T22:05:58.553Z,70.70
2018-04-12T22:08:31.706Z,70.40
2018-04-12T22:10:57.949Z,70.30
2018-04-12T22:13:30.432Z,70.40
2018-04-12T22:15:56.813Z,70.40
2018-04-12T22:18:23.060Z,70.60
2018-04-12T22:20:55.403Z,70.60
2018-04-12T22:23:27.823Z,70.90
2018-04-12T22:26:12.515Z,71.40
2018-04-12T22:28:45.504Z,72.20
2018-04-12T22:31:18.642Z,72.70
2018-04-12T22:33:44.891Z,72.60
2018-04-12T22:36:17.115Z,73.20
2018-04-12T22:38:55.641Z,73.50
2018-04-12T22:41:21.869Z,73.60
2018-04-12T22:43:48.121Z,73.90
2018-04-12T22:46:14.346Z,74.20
2018-04-12T22:48:59.098Z,74.50
2018-04-12T22:51:31.353Z,74.50
2018-04-12T22:53:58.393Z,74.40
2018-04-12T22:56:24.591Z,74.20
2018-04-12T22:58:56.820Z,74.60
2018-04-12T23:01:29.230Z,75.00
2018-04-12T23:04:08.516Z,75.80
2018-04-12T23:06:40.771Z,75.70
2018-04-12T23:09:07.002Z,76.20
2018-04-12T23:11:33.238Z,76.80
2018-04-12T23:14:05.622Z,77.30
2018-04-12T23:16:32.730Z,78.00
2018-04-12T23:18:58.963Z,78.00
2018-04-12T23:21:31.201Z,78.00
2018-04-12T23:24:10.431Z,78.30
2018-04-12T23:26:48.859Z,78.30
2018-04-12T23:29:15.104Z,78.60
2018-04-12T23:31:48.113Z,79.10
2018-04-12T23:34:21.231Z,79.20
2018-04-12T23:36:47.511Z,79.90
2018-04-12T23:39:13.775Z,79.40
2018-04-12T23:41:39.999Z,79.80
2018-04-12T23:44:06.226Z,80.30
2018-04-12T23:46:44.682Z,80.40
2018-04-12T23:49:23.139Z,80.30
2018-04-12T23:52:02.422Z,81.10
2018-04-12T23:54:40.921Z,81.10
2018-04-12T23:57:14.011Z,81.40
2018-04-12T23:59:47.065Z,82.00
